Time;durP1;ratioP1;P1;durP2;ratioP2;P2;SDS_P1;SDS_P2;PMS_P1;PMS_P2;Temp;Humidity;BMP_temperature;BMP_pressure;BME280_temperature;BME280_humidity;BME280_pressure;Samples;Min_cycle;Max_cycle;Signal;HPM_P1;HPM_P2
2021/06/10 00:02:20;;;;;;;16.07;15.30;;;18.40;90.70;;;;;;5052035;28;20483;-66
2021/06/10 00:04:47;;;;;;;16.40;15.60;;;18.30;93.10;;;;;;5052229;28;20440;-65
2021/06/10 00:07:15;;;;;;;15.90;14.90;;;18.20;93.50;;;;;;5052166;28;20444;-66
2021/06/10 00:09:42;;;;;;;15.50;14.97;;;18.10;94.80;;;;;;5052079;28;20448;-65
2021/06/10 00:12:10;;;;;;;15.80;15.10;;;18.00;96.40;;;;;;5052047;28;20456;-66
2021/06/10 00:14:36;;;;;;;15.90;15.20;;;17.90;97.70;;;;;;5052118;28;20971;-66
2021/06/10 00:17:03;;;;;;;16.03;15.23;;;17.80;98.70;;;;;;5052122;28;20812;-66
2021/06/10 00:19:29;;;;;;;16.10;15.30;;;17.70;99.90;;;;;;5051756;28;21771;-66
2021/06/10 00:21:55;;;;;;;16.20;15.53;;;17.60;99.90;;;;;;5051834;28;20479;-67
2021/06/10 00:24:22;;;;;;;15.70;14.70;;;17.60;99.90;;;;;;5051851;28;20459;-67
2021/06/10 00:26:49;;;;;;;16.13;15.30;;;17.50;99.90;;;;;;5051749;28;20452;-66
2021/06/10 00:29:15;;;;;;;15.10;14.50;;;17.40;99.90;;;;;;5051670;28;20439;-66
2021/06/10 00:31:42;;;;;;;15.90;15.20;;;17.40;99.90;;;;;;5051631;28;20456;-68
2021/06/10 00:34:08;;;;;;;15.67;15.07;;;17.30;99.90;;;;;;5051801;28;20448;-67
2021/06/10 00:36:34;;;;;;;14.83;14.23;;;17.30;99.90;;;;;;5051715;28;20944;-67
2021/06/10 00:39:01;;;;;;;15.33;14.63;;;17.20;99.90;;;;;;5051559;28;20443;-67
2021/06/10 00:41:31;;;;;;;16.03;15.13;;;17.20;99.90;;;;;;5051654;28;20809;-67
2021/06/10 00:43:59;;;;;;;16.00;15.20;;;17.20;99.90;;;;;;5051573;28;20843;-67
2021/06/10 00:46:25;;;;;;;15.27;14.73;;;17.30;99.90;;;;;;5051633;28;20451;-67
2021/06/10 00:48:52;;;;;;;15.60;14.80;;;17.40;99.90;;;;;;5051581;28;20455;-67
2021/06/10 00:51:18;;;;;;;15.20;14.50;;;17.40;99.90;;;;;;5051624;28;20464;-67
2021/06/10 00:53:44;;;;;;;14.87;14.17;;;17.40;99.90;;;;;;5051769;28;20441;-67
2021/06/10 00:56:11;;;;;;;14.97;14.37;;;17.40;99.90;;;;;;5051664;28;20560;-66
2021/06/10 00:58:38;;;;;;;16.33;15.53;;;17.30;99.90;;;;;;5051476;28;20470;-67
2021/06/10 01:01:05;;;;;;;15.60;14.83;;;17.30;99.90;;;;;;5051328;28;20479;-66
2021/06/10 01:03:32;;;;;;;15.50;14.67;;;17.20;99.90;;;;;;5051419;28;20528;-66
2021/06/10 01:06:00;;;;;;;15.33;14.60;;;17.20;99.90;;;;;;5051540;28;20459;-66
2021/06/10 01:08:33;;;;;;;15.27;14.60;;;17.10;99.90;;;;;;5051195;28;20803;-66
2021/06/10 01:11:09;;;;;;;15.50;14.80;;;17.00;99.90;;;;;;5051335;28;20474;-66
2021/06/10 01:13:46;;;;;;;15.30;14.70;;;17.00;99.90;;;;;;5051351;28;20436;-66
2021/06/10 01:16:18;;;;;;;15.27;14.47;;;17.00;99.90;;;;;;5051527;28;20486;-66
2021/06/10 01:18:46;;;;;;;15.63;14.53;;;16.90;99.90;;;;;;5051183;28;20440;-66
2021/06/10 01:21:12;;;;;;;15.20;14.40;;;16.90;99.90;;;;;;5051348;28;20475;-67
2021/06/10 01:24:01;;;;;;;16.33;15.23;;;16.80;99.90;;;;;;5051182;28;20487;-66
2021/06/10 01:26:32;;;;;;;15.27;14.30;;;16.80;99.90;;;;;;5051307;28;20455;-66
2021/06/10 01:29:01;;;;;;;15.30;14.60;;;16.80;99.90;;;;;;5051113;28;20459;-66
2021/06/10 01:31:28;;;;;;;15.80;14.80;;;16.70;99.90;;;;;;5051051;28;20941;-67
2021/06/10 01:33:57;;;;;;;16.57;15.50;;;16.70;99.90;;;;;;5051095;28;20443;-66
2021/06/10 01:36:28;;;;;;;15.30;14.40;;;16.70;99.90;;;;;;5054209;28;20446;-66
2021/06/10 01:39:00;;;;;;;15.40;14.67;;;16.70;99.90;;;;;;5055129;28;20444;-66
2021/06/10 01:41:27;;;;;;;15.40;14.80;;;16.70;99.90;;;;;;5055137;28;20464;-66
2021/06/10 01:43:56;;;;;;;16.50;15.70;;;16.70;99.90;;;;;;5055004;28;20482;-66
2021/06/10 01:46:25;;;;;;;16.23;15.20;;;16.70;99.90;;;;;;5055035;28;20855;-66
2021/06/10 01:48:52;;;;;;;17.00;15.70;;;16.70;99.90;;;;;;5054798;28;20451;-67
2021/06/10 01:51:21;;;;;;;16.40;15.53;;;16.70;99.90;;;;;;5054848;28;20463;-66
2021/06/10 01:53:49;;;;;;;15.87;14.97;;;16.70;99.90;;;;;;5054894;28;20513;-66
2021/06/10 01:56:17;;;;;;;15.00;14.50;;;16.70;99.90;;;;;;5054966;28;20472;-66
2021/06/10 01:58:44;;;;;;;16.90;15.30;;;16.60;99.90;;;;;;5054573;28;20440;-66
2021/06/10 02:01:11;;;;;;;15.40;14.60;;;16.60;99.90;;;;;;5054551;28;21015;-66
2021/06/10 02:03:39;;;;;;;16.17;15.37;;;16.50;99.90;;;;;;5054699;28;20537;-66
2021/06/10 02:06:08;;;;;;;15.43;14.73;;;16.50;99.90;;;;;;5054711;28;20448;-67
2021/06/10 02:08:35;;;;;;;16.53;15.63;;;16.60;99.90;;;;;;5054197;28;20491;-66
2021/06/10 02:11:01;;;;;;;16.70;15.70;;;16.50;99.90;;;;;;5054354;28;20464;-66
2021/06/10 02:13:31;;;;;;;16.63;15.83;;;16.50;99.90;;;;;;5054494;28;20991;-66
2021/06/10 02:16:02;;;;;;;17.00;15.80;;;16.50;99.90;;;;;;5054420;28;20444;-66
2021/06/10 02:18:28;;;;;;;17.20;16.40;;;16.60;99.90;;;;;;5054322;28;20452;-66
2021/06/10 02:20:58;;;;;;;17.87;16.83;;;16.60;99.90;;;;;;5054227;28;20464;-66
2021/06/10 02:23:25;;;;;;;16.17;15.37;;;16.60;99.90;;;;;;5054310;28;20480;-66
2021/06/10 02:25:51;;;;;;;16.53;15.60;;;16.60;99.90;;;;;;5054121;28;20809;-66
2021/06/10 02:28:17;;;;;;;15.83;15.03;;;16.70;99.90;;;;;;5053993;28;20444;-66
2021/06/10 02:30:43;;;;;;;16.30;15.50;;;16.70;99.90;;;;;;5053988;28;20977;-66
2021/06/10 02:33:10;;;;;;;16.73;15.93;;;16.70;99.90;;;;;;5054120;28;20436;-66
2021/06/10 02:35:36;;;;;;;16.03;15.20;;;16.70;99.90;;;;;;5054191;28;20444;-66
2021/06/10 02:38:05;;;;;;;15.47;14.87;;;16.70;99.90;;;;;;5053831;28;20473;-66
2021/06/10 02:40:33;;;;;;;17.13;16.23;;;16.70;99.90;;;;;;5054000;28;20521;-66
2021/06/10 02:43:04;;;;;;;16.57;15.87;;;16.70;99.90;;;;;;5053894;28;20538;-67
2021/06/10 02:45:31;;;;;;;16.60;15.80;;;16.70;99.90;;;;;;5054094;28;20805;-66
2021/06/10 02:47:58;;;;;;;16.60;15.80;;;16.70;99.90;;;;;;5052440;28;20498;-66
2021/06/10 02:50:27;;;;;;;17.73;16.80;;;16.70;99.90;;;;;;5053804;28;20488;-66
2021/06/10 02:52:54;;;;;;;16.20;15.40;;;16.60;99.90;;;;;;5053759;28;20518;-66
2021/06/10 02:55:22;;;;;;;17.37;16.37;;;16.60;99.90;;;;;;5053782;28;20444;-66
2021/06/10 02:57:53;;;;;;;17.30;16.50;;;16.60;99.90;;;;;;5053530;28;20440;-66
2021/06/10 03:00:21;;;;;;;17.03;16.13;;;16.60;99.90;;;;;;5053505;28;20476;-66
2021/06/10 03:02:49;;;;;;;17.97;16.97;;;16.50;99.90;;;;;;5053504;28;20480;-66
2021/06/10 03:05:16;;;;;;;20.03;18.73;;;16.50;99.90;;;;;;5053502;28;20444;-66
2021/06/10 03:07:43;;;;;;;17.70;16.80;;;16.40;99.90;;;;;;5053321;28;20444;-66
2021/06/10 03:10:12;;;;;;;18.93;17.63;;;16.40;99.90;;;;;;5053329;28;20440;-66
2021/06/10 03:12:41;;;;;;;19.60;18.60;;;16.30;99.90;;;;;;5053448;28;20436;-66
2021/06/10 03:15:09;;;;;;;19.63;18.43;;;16.30;99.90;;;;;;5053435;28;20447;-66
2021/06/10 03:17:37;;;;;;;18.03;17.10;;;16.20;99.90;;;;;;5053283;28;20451;-66
2021/06/10 03:20:04;;;;;;;19.80;18.50;;;16.20;99.90;;;;;;5053135;28;20440;-66
2021/06/10 03:22:31;;;;;;;18.70;17.70;;;16.10;99.90;;;;;;5053126;28;20479;-65
2021/06/10 03:24:57;;;;;;;18.37;17.40;;;16.00;99.90;;;;;;5053106;28;20448;-65
2021/06/10 03:27:25;;;;;;;18.83;17.83;;;16.00;99.90;;;;;;5053143;28;20501;-65
2021/06/10 03:29:52;;;;;;;18.60;17.60;;;15.90;99.90;;;;;;5052976;28;20502;-66
2021/06/10 03:32:19;;;;;;;19.90;18.70;;;15.90;99.90;;;;;;5052899;28;20444;-66
2021/06/10 03:34:46;;;;;;;19.33;18.17;;;15.80;99.90;;;;;;5053008;28;20857;-65
2021/06/10 03:37:13;;;;;;;18.67;17.57;;;15.80;99.90;;;;;;5052949;28;20440;-65
2021/06/10 03:39:40;;;;;;;19.20;17.90;;;15.80;99.90;;;;;;5052629;28;20445;-65
2021/06/10 03:42:07;;;;;;;19.10;18.10;;;15.80;99.90;;;;;;5052722;28;20464;-66
2021/06/10 03:44:34;;;;;;;19.60;18.40;;;15.70;99.90;;;;;;5052871;28;20444;-66
2021/06/10 03:47:02;;;;;;;20.30;19.20;;;15.70;99.90;;;;;;5052797;28;20448;-65
2021/06/10 03:49:29;;;;;;;19.10;18.00;;;15.70;99.90;;;;;;5052616;28;20519;-65
2021/06/10 03:51:55;;;;;;;20.43;18.90;;;15.70;99.90;;;;;;5052400;28;20468;-67
2021/06/10 03:54:22;;;;;;;19.00;17.90;;;15.70;99.90;;;;;;5052559;28;20594;-67
2021/06/10 03:56:48;;;;;;;19.37;18.20;;;15.70;99.90;;;;;;5052439;28;20510;-66
2021/06/10 03:59:15;;;;;;;18.70;17.53;;;15.80;99.90;;;;;;5051804;28;20448;-66
2021/06/10 04:01:41;;;;;;;19.97;18.20;;;15.80;99.90;;;;;;5052219;28;20502;-66
2021/06/10 04:04:09;;;;;;;19.23;18.10;;;15.80;99.90;;;;;;5052134;28;20480;-65
2021/06/10 04:06:37;;;;;;;19.10;17.73;;;15.90;99.90;;;;;;5051399;28;21003;-67
2021/06/10 04:09:05;;;;;;;18.63;17.43;;;15.90;99.90;;;;;;5051113;28;20513;-66
2021/06/10 04:11:32;;;;;;;18.40;17.50;;;15.90;99.90;;;;;;5050886;28;20476;-65
2021/06/10 04:13:59;;;;;;;20.17;18.57;;;16.00;99.90;;;;;;5050872;28;20444;-66
2021/06/10 04:16:26;;;;;;;18.80;17.90;;;16.00;99.90;;;;;;5050841;28;20443;-66
2021/06/10 04:18:53;;;;;;;19.77;18.50;;;16.10;99.90;;;;;;5050612;28;20523;-66
2021/06/10 04:21:20;;;;;;;20.07;18.87;;;16.10;99.90;;;;;;5050811;28;20966;-67
2021/06/10 04:23:47;;;;;;;19.80;18.60;;;16.10;99.90;;;;;;5051051;28;20479;-67
2021/06/10 04:26:14;;;;;;;20.27;19.07;;;16.20;99.90;;;;;;5051666;28;20508;-67
2021/06/10 04:28:40;;;;;;;19.00;17.90;;;16.20;99.90;;;;;;5051523;28;20448;-66
2021/06/10 04:31:06;;;;;;;20.80;19.40;;;16.30;99.90;;;;;;5051355;28;20494;-68
2021/06/10 04:33:32;;;;;;;19.40;18.40;;;16.40;99.90;;;;;;5051468;28;20823;-67
2021/06/10 04:35:58;;;;;;;18.63;17.40;;;16.40;99.90;;;;;;5051559;28;20444;-65
2021/06/10 04:38:26;;;;;;;20.03;18.53;;;16.50;99.90;;;;;;5051296;28;20482;-66
2021/06/10 04:40:52;;;;;;;19.63;18.63;;;16.60;99.90;;;;;;5051342;28;20471;-67
2021/06/10 04:43:18;;;;;;;19.80;18.50;;;16.60;99.90;;;;;;5051337;28;20996;-67
2021/06/10 04:45:44;;;;;;;19.27;18.00;;;16.70;99.90;;;;;;5051297;28;20506;-67
2021/06/10 04:48:11;;;;;;;20.03;18.93;;;16.80;99.90;;;;;;5051187;28;20448;-67
2021/06/10 04:50:37;;;;;;;19.43;18.33;;;16.90;99.90;;;;;;5051176;28;20498;-67
2021/06/10 04:53:04;;;;;;;20.20;19.00;;;17.00;99.90;;;;;;5051149;28;20531;-66
2021/06/10 04:55:32;;;;;;;19.73;18.27;;;17.00;99.90;;;;;;5051287;28;20448;-67
2021/06/10 04:57:58;;;;;;;19.53;18.43;;;17.10;99.90;;;;;;5051017;28;20819;-66
2021/06/10 05:00:24;;;;;;;19.27;18.17;;;17.20;99.90;;;;;;5051793;28;20476;-67
2021/06/10 05:02:50;;;;;;;21.73;18.90;;;17.30;99.90;;;;;;5051069;28;20487;-68
2021/06/10 05:05:17;;;;;;;19.70;18.60;;;17.30;99.90;;;;;;5051082;28;20447;-67
2021/06/10 05:07:43;;;;;;;19.00;18.00;;;17.40;99.90;;;;;;5051048;28;20438;-67
2021/06/10 05:10:10;;;;;;;19.37;18.10;;;17.50;99.90;;;;;;5050146;28;20448;-68
2021/06/10 05:12:37;;;;;;;18.17;17.27;;;17.60;99.90;;;;;;5050980;28;20439;-67
2021/06/10 05:15:05;;;;;;;20.40;18.93;;;17.70;99.90;;;;;;5051023;28;20444;-66
2021/06/10 05:17:31;;;;;;;18.80;17.80;;;17.80;99.90;;;;;;5051060;28;20814;-67
2021/06/10 05:19:57;;;;;;;18.67;17.67;;;17.90;99.90;;;;;;5050637;28;20941;-67
2021/06/10 05:22:23;;;;;;;19.33;18.33;;;18.00;99.90;;;;;;5050603;28;20451;-66
2021/06/10 05:24:50;;;;;;;20.37;19.13;;;18.00;99.90;;;;;;5050967;28;20813;-66
2021/06/10 05:27:16;;;;;;;19.80;18.37;;;18.10;99.90;;;;;;5050845;28;20843;-67
2021/06/10 05:29:44;;;;;;;19.63;18.60;;;18.20;99.90;;;;;;5050729;28;20455;-67
2021/06/10 05:32:11;;;;;;;19.00;18.00;;;18.30;99.90;;;;;;5050694;28;20537;-66
2021/06/10 05:34:37;;;;;;;20.30;19.10;;;18.40;99.90;;;;;;5050907;28;20960;-66
2021/06/10 05:37:04;;;;;;;20.93;19.70;;;18.50;99.90;;;;;;5050786;28;20444;-67
2021/06/10 05:39:30;;;;;;;19.57;18.37;;;18.60;99.90;;;;;;5050747;28;20448;-67
2021/06/10 05:41:56;;;;;;;19.50;18.40;;;18.70;99.90;;;;;;5050528;28;20819;-67
2021/06/10 05:44:22;;;;;;;19.43;18.43;;;18.80;99.90;;;;;;5050626;28;20514;-67
2021/06/10 05:46:50;;;;;;;19.47;18.47;;;18.80;99.90;;;;;;5050906;28;20780;-67
2021/06/10 05:49:17;;;;;;;19.97;18.97;;;18.90;99.90;;;;;;5050446;28;20482;-67
2021/06/10 05:51:43;;;;;;;18.97;17.93;;;19.00;99.90;;;;;;5050610;28;20463;-67
2021/06/10 05:54:10;;;;;;;19.43;18.43;;;19.10;99.90;;;;;;5050636;28;20451;-66
2021/06/10 05:56:36;;;;;;;18.77;17.67;;;19.20;99.90;;;;;;5050693;28;20509;-67
2021/06/10 05:59:03;;;;;;;18.70;17.60;;;19.40;99.90;;;;;;5050413;28;20536;-66
2021/06/10 06:01:30;;;;;;;19.70;18.53;;;19.40;99.90;;;;;;5050525;28;20476;-66
2021/06/10 06:03:57;;;;;;;19.50;18.60;;;19.50;99.90;;;;;;5050478;28;20829;-66
2021/06/10 06:06:24;;;;;;;20.13;19.10;;;19.60;99.90;;;;;;5050474;28;20448;-67
2021/06/10 06:08:51;;;;;;;19.77;18.67;;;19.70;99.90;;;;;;5050378;28;20444;-67
2021/06/10 06:11:18;;;;;;;20.10;18.73;;;19.80;99.90;;;;;;5050334;28;20980;-70
2021/06/10 06:13:46;;;;;;;19.63;18.67;;;19.90;99.90;;;;;;5050448;28;20444;-66
2021/06/10 06:16:14;;;;;;;20.90;19.80;;;20.00;99.90;;;;;;5050374;28;20476;-66
2021/06/10 06:18:40;;;;;;;20.40;19.30;;;20.10;99.90;;;;;;5050343;28;20451;-67
2021/06/10 06:21:08;;;;;;;19.33;18.43;;;20.10;99.90;;;;;;5051029;28;20470;-67
2021/06/10 06:23:34;;;;;;;20.53;19.53;;;20.20;99.90;;;;;;5053740;28;20479;-67
2021/06/10 06:26:01;;;;;;;19.67;18.70;;;20.30;99.90;;;;;;5053906;28;20455;-66
2021/06/10 06:28:28;;;;;;;19.90;18.50;;;20.40;99.90;;;;;;5053929;28;20454;-66
2021/06/10 06:30:54;;;;;;;20.23;19.13;;;20.50;99.90;;;;;;5053742;28;20467;-66
2021/06/10 06:33:20;;;;;;;19.63;18.73;;;20.60;99.90;;;;;;5053726;28;20448;-66
2021/06/10 06:35:46;;;;;;;20.30;19.20;;;20.70;99.90;;;;;;5053624;28;20448;-67
2021/06/10 06:38:14;;;;;;;19.70;18.50;;;20.70;98.80;;;;;;5053540;28;20467;-66
2021/06/10 06:40:40;;;;;;;19.93;19.07;;;20.80;97.10;;;;;;5053591;28;20460;-67
2021/06/10 06:43:06;;;;;;;19.90;18.90;;;20.80;94.50;;;;;;5053517;28;20484;-66
2021/06/10 06:45:33;;;;;;;18.80;17.87;;;20.90;93.60;;;;;;5053511;28;20828;-66
2021/06/10 06:48:00;;;;;;;19.93;18.93;;;21.10;93.70;;;;;;5053512;28;20810;-65
2021/06/10 06:50:26;;;;;;;19.30;18.40;;;21.20;92.80;;;;;;5053251;28;20465;-65
2021/06/10 06:52:52;;;;;;;19.83;18.73;;;21.30;90.80;;;;;;5053435;28;20448;-66
2021/06/10 06:55:20;;;;;;;19.13;18.33;;;21.40;87.50;;;;;;5053403;28;20440;-66
2021/06/10 06:57:46;;;;;;;19.47;18.60;;;21.40;87.80;;;;;;5053462;28;20443;-65
2021/06/10 07:00:13;;;;;;;19.03;18.10;;;21.50;90.40;;;;;;5052865;28;20452;-66
2021/06/10 07:02:39;;;;;;;19.63;18.63;;;21.50;90.70;;;;;;5053222;28;20518;-66
2021/06/10 07:05:06;;;;;;;20.40;19.30;;;21.60;90.20;;;;;;5053078;28;20444;-66
2021/06/10 07:07:33;;;;;;;21.30;20.00;;;21.70;90.10;;;;;;5053180;28;20452;-66
2021/06/10 07:09:59;;;;;;;22.77;20.87;;;21.80;89.30;;;;;;5052934;28;20439;-66
2021/06/10 07:12:27;;;;;;;22.27;21.07;;;21.90;84.30;;;;;;5053160;28;20495;-66
2021/06/10 07:14:53;;;;;;;22.03;20.83;;;22.00;84.10;;;;;;5052952;28;20953;-66
2021/06/10 07:17:19;;;;;;;23.73;21.40;;;22.10;86.20;;;;;;5052929;28;20451;-65
2021/06/10 07:19:47;;;;;;;21.10;20.00;;;22.20;85.30;;;;;;5052738;28;20448;-66
2021/06/10 07:22:13;;;;;;;21.70;20.33;;;22.30;83.60;;;;;;5052804;28;20837;-66
2021/06/10 07:24:40;;;;;;;20.93;19.50;;;22.40;84.50;;;;;;5052725;28;20480;-65
2021/06/10 07:27:09;;;;;;;22.27;20.87;;;22.40;85.10;;;;;;5052803;28;20448;-66
2021/06/10 07:29:36;;;;;;;22.47;21.27;;;22.50;86.30;;;;;;5052697;28;20471;-66
2021/06/10 07:32:03;;;;;;;21.67;20.37;;;22.60;80.00;;;;;;5052436;28;20464;-66
2021/06/10 07:34:30;;;;;;;20.37;19.37;;;22.60;79.20;;;;;;5051991;28;20448;-65
2021/06/10 07:36:56;;;;;;;20.10;19.20;;;22.70;73.70;;;;;;5052581;28;20444;-66
2021/06/10 07:39:22;;;;;;;18.60;17.70;;;22.80;74.40;;;;;;5052372;28;20448;-65
2021/06/10 07:41:48;;;;;;;20.10;19.00;;;22.80;69.30;;;;;;5052349;28;20981;-66
2021/06/10 07:44:14;;;;;;;20.50;19.30;;;23.00;74.70;;;;;;5052308;28;20542;-66
2021/06/10 07:46:42;;;;;;;19.03;17.93;;;23.10;75.00;;;;;;5052350;28;20470;-66
2021/06/10 07:49:08;;;;;;;18.20;17.50;;;23.20;71.50;;;;;;5052123;28;20992;-65
2021/06/10 07:51:34;;;;;;;19.60;18.70;;;23.20;67.30;;;;;;5052188;28;20592;-66
2021/06/10 07:54:00;;;;;;;18.90;18.20;;;23.30;67.90;;;;;;5052298;28;20519;-66
2021/06/10 07:56:26;;;;;;;19.20;18.30;;;23.40;68.50;;;;;;5052221;28;20444;-67
2021/06/10 07:58:53;;;;;;;18.50;17.80;;;23.50;70.40;;;;;;5052050;28;20451;-65
2021/06/10 08:01:19;;;;;;;18.73;17.93;;;23.50;67.20;;;;;;5051910;28;20482;-67
2021/06/10 08:03:47;;;;;;;19.27;18.37;;;23.60;66.50;;;;;;5051859;28;20480;-67
2021/06/10 08:06:13;;;;;;;18.77;17.93;;;23.70;68.10;;;;;;5052069;28;20455;-66
2021/06/10 08:08:39;;;;;;;19.13;18.23;;;23.90;68.30;;;;;;5051747;28;20459;-66
2021/06/10 08:11:07;;;;;;;19.40;18.50;;;24.00;67.70;;;;;;5051816;28;20460;-66
2021/06/10 08:13:34;;;;;;;20.40;19.50;;;23.90;67.60;;;;;;5051870;28;20925;-66
2021/06/10 08:16:00;;;;;;;20.90;19.80;;;24.00;66.90;;;;;;5051789;28;20950;-66
2021/06/10 08:18:28;;;;;;;20.63;19.70;;;23.90;67.00;;;;;;5051647;28;20440;-66
2021/06/10 08:20:56;;;;;;;20.60;19.53;;;24.10;67.50;;;;;;5051706;28;20468;-66
2021/06/10 08:23:23;;;;;;;21.10;20.00;;;24.20;68.40;;;;;;5051685;28;20529;-66
2021/06/10 08:25:49;;;;;;;20.53;19.53;;;24.10;68.40;;;;;;5051667;28;20447;-66
2021/06/10 08:28:16;;;;;;;20.07;18.87;;;24.20;67.80;;;;;;5051264;28;20440;-67
2021/06/10 08:30:43;;;;;;;21.23;20.00;;;24.30;67.70;;;;;;5051497;28;20491;-66
2021/06/10 08:33:09;;;;;;;21.17;20.07;;;24.40;66.60;;;;;;5051501;28;20440;-66
2021/06/10 08:35:36;;;;;;;20.10;19.07;;;24.50;65.00;;;;;;5051523;28;20440;-66
2021/06/10 08:38:06;;;;;;;21.27;20.10;;;24.50;65.30;;;;;;5051460;28;20451;-66
2021/06/10 08:40:33;;;;;;;20.33;19.43;;;24.60;63.80;;;;;;5051277;28;20894;-66
2021/06/10 08:42:59;;;;;;;18.87;18.07;;;24.40;62.30;;;;;;5051201;28;20486;-65
2021/06/10 08:45:28;;;;;;;20.93;19.83;;;24.50;62.50;;;;;;5051270;28;20445;-66
2021/06/10 08:47:55;;;;;;;19.30;18.60;;;24.60;61.00;;;;;;5051288;28;20444;-66
2021/06/10 08:50:23;;;;;;;20.70;19.60;;;24.70;60.90;;;;;;5051047;28;20551;-65
2021/06/10 08:52:50;;;;;;;20.17;18.80;;;24.90;59.90;;;;;;5051437;28;20440;-65
2021/06/10 08:55:18;;;;;;;19.17;18.13;;;25.00;61.20;;;;;;5051121;28;20467;-66
2021/06/10 08:57:45;;;;;;;21.13;20.17;;;25.10;60.60;;;;;;5051355;28;20436;-66
2021/06/10 09:00:12;;;;;;;20.40;19.50;;;25.20;60.40;;;;;;5050848;28;21080;-66
2021/06/10 09:02:38;;;;;;;19.70;18.80;;;25.30;60.50;;;;;;5051045;28;20448;-66
2021/06/10 09:05:06;;;;;;;20.13;19.20;;;25.40;59.60;;;;;;5051166;28;20455;-66
2021/06/10 09:07:34;;;;;;;20.30;19.07;;;25.50;60.20;;;;;;5051090;28;20451;-66
2021/06/10 09:10:00;;;;;;;21.13;20.00;;;25.70;60.10;;;;;;5050814;28;20497;-66
2021/06/10 09:12:28;;;;;;;20.80;19.90;;;25.70;61.60;;;;;;5051062;28;20964;-66
2021/06/10 09:14:57;;;;;;;21.10;19.87;;;25.80;60.10;;;;;;5050957;28;20446;-66
2021/06/10 09:17:30;;;;;;;20.17;18.90;;;25.80;59.30;;;;;;5051071;28;20934;-66
2021/06/10 09:19:57;;;;;;;20.40;19.40;;;25.90;59.00;;;;;;5050745;28;20531;-66
2021/06/10 09:22:28;;;;;;;20.60;19.60;;;26.00;59.20;;;;;;5050919;28;20734;-66
2021/06/10 09:25:05;;;;;;;20.87;19.97;;;26.10;57.10;;;;;;5050992;28;20476;-66
2021/06/10 09:27:33;;;;;;;20.60;19.57;;;26.20;56.70;;;;;;5050980;28;20984;-65
2021/06/10 09:30:00;;;;;;;19.40;18.60;;;26.20;56.40;;;;;;5050699;28;20444;-65
2021/06/10 09:32:30;;;;;;;19.87;18.97;;;26.20;56.50;;;;;;5050658;28;20938;-66
2021/06/10 09:34:59;;;;;;;19.77;18.97;;;26.20;56.50;;;;;;5050874;28;20446;-66
2021/06/10 09:37:31;;;;;;;21.70;20.60;;;26.40;55.70;;;;;;5050730;28;20527;-66
2021/06/10 09:39:58;;;;;;;20.47;19.57;;;26.50;55.80;;;;;;5050475;28;20448;-66
2021/06/10 09:42:27;;;;;;;20.03;18.93;;;26.40;55.40;;;;;;5050762;28;20452;-66
2021/06/10 09:44:57;;;;;;;20.80;19.77;;;26.60;56.40;;;;;;5050700;28;20476;-66
2021/06/10 09:47:32;;;;;;;20.37;19.30;;;26.60;54.80;;;;;;5050634;28;20459;-66
2021/06/10 09:50:12;;;;;;;20.10;19.10;;;26.80;55.60;;;;;;5050468;28;20458;-66
2021/06/10 09:52:48;;;;;;;20.33;19.40;;;27.00;54.80;;;;;;5050687;28;20455;-66
2021/06/10 09:55:40;;;;;;;19.97;19.10;;;27.30;53.50;;;;;;5050666;28;20444;-66
2021/06/10 09:58:20;;;;;;;19.53;18.73;;;27.60;53.80;;;;;;5050845;28;20491;-66
2021/06/10 10:00:53;;;;;;;20.23;19.17;;;27.70;53.70;;;;;;5054151;28;20984;-66
2021/06/10 10:03:40;;;;;;;20.97;20.07;;;27.50;53.90;;;;;;5054195;28;20502;-66
2021/06/10 10:06:13;;;;;;;19.90;19.10;;;27.40;53.10;;;;;;5054516;28;20459;-65
2021/06/10 10:08:40;;;;;;;19.50;18.70;;;27.40;53.60;;;;;;5054167;28;20535;-66
2021/06/10 10:11:07;;;;;;;21.20;20.10;;;27.50;53.70;;;;;;5054154;28;20491;-66
2021/06/10 10:13:34;;;;;;;21.00;20.10;;;27.40;53.80;;;;;;5054079;28;20956;-66
2021/06/10 10:16:02;;;;;;;21.60;20.70;;;27.30;52.70;;;;;;5054054;28;20455;-66
2021/06/10 10:18:29;;;;;;;20.23;19.43;;;27.10;53.70;;;;;;5053888;28;20455;-65
2021/06/10 10:20:59;;;;;;;20.70;19.90;;;27.40;53.60;;;;;;5053990;28;20985;-66
2021/06/10 10:23:25;;;;;;;20.03;18.93;;;27.70;53.50;;;;;;5053938;28;20484;-66
2021/06/10 10:25:56;;;;;;;20.50;19.40;;;27.70;53.90;;;;;;5054011;28;20448;-66
2021/06/10 10:28:22;;;;;;;20.47;19.50;;;27.50;53.00;;;;;;5053718;28;20447;-67
2021/06/10 10:30:49;;;;;;;20.53;19.73;;;27.40;52.80;;;;;;5053510;28;20460;-66
2021/06/10 10:33:18;;;;;;;18.93;18.23;;;27.50;53.50;;;;;;5053830;28;20932;-66
2021/06/10 10:35:49;;;;;;;19.30;18.50;;;27.60;55.30;;;;;;5053799;28;20440;-66
2021/06/10 10:38:20;;;;;;;20.60;19.50;;;27.80;54.60;;;;;;5053695;28;20454;-65
2021/06/10 10:40:52;;;;;;;20.40;19.50;;;27.90;53.30;;;;;;5053652;28;20464;-66
2021/06/10 10:43:19;;;;;;;20.70;19.90;;;28.20;53.30;;;;;;5053640;28;20847;-67
2021/06/10 10:45:49;;;;;;;19.97;19.10;;;28.40;53.10;;;;;;5053429;28;20451;-67
2021/06/10 10:48:31;;;;;;;21.83;20.77;;;28.70;52.50;;;;;;5053504;28;20514;-66
2021/06/10 10:50:58;;;;;;;20.87;19.87;;;29.00;52.40;;;;;;5053348;28;20558;-67
2021/06/10 10:53:26;;;;;;;19.63;18.73;;;29.00;50.10;;;;;;5053417;28;20443;-66
2021/06/10 10:56:04;;;;;;;19.70;18.90;;;29.10;50.00;;;;;;5053268;28;20463;-76
2021/06/10 10:58:31;;;;;;;21.20;20.20;;;29.50;50.00;;;;;;5053265;28;20452;-66
2021/06/10 11:00:59;;;;;;;19.30;18.40;;;29.10;49.30;;;;;;5082672;22;20976;-68
2021/06/10 11:03:29;;;;;;;20.07;19.17;;;28.90;50.30;;;;;;5073381;28;20479;-68
2021/06/10 11:05:57;;;;;;;20.10;19.20;;;29.10;51.10;;;;;;5073502;28;20447;-69
2021/06/10 11:08:44;;;;;;;20.93;19.77;;;29.40;51.50;;;;;;5072230;28;20447;-69
2021/06/10 11:11:11;;;;;;;21.27;19.93;;;29.80;49.80;;;;;;5073251;28;20979;-70
2021/06/10 11:13:48;;;;;;;22.03;20.70;;;30.00;48.40;;;;;;5073303;28;20805;-69
2021/06/10 11:16:15;;;;;;;20.97;20.03;;;30.20;48.00;;;;;;5073470;28;20529;-69
2021/06/10 11:18:52;;;;;;;22.40;21.10;;;30.00;48.30;;;;;;5073192;28;20447;-70
2021/06/10 11:21:58;;;;;;;22.20;21.10;;;30.50;47.70;;;;;;5073262;28;20470;-70
2021/06/10 11:24:24;;;;;;;21.93;20.93;;;31.20;46.80;;;;;;5069695;28;20474;-69
2021/06/10 11:27:01;;;;;;;21.00;20.13;;;31.40;45.10;;;;;;5073133;28;20927;-69
2021/06/10 11:29:28;;;;;;;22.47;21.47;;;32.00;44.60;;;;;;5073041;28;20453;-69
2021/06/10 11:32:19;;;;;;;22.30;21.40;;;32.80;42.50;;;;;;5072868;28;20525;-70
2021/06/10 11:34:52;;;;;;;22.38;21.10;;;34.30;40.80;;;;;;5073166;28;20205;-70
2021/06/10 11:37:23;;;;;;;21.77;20.88;;;36.10;39.90;;;;;;5073148;28;20212;-70
2021/06/10 11:39:49;;;;;;;21.63;20.75;;;37.20;37.10;;;;;;5072745;28;20700;-69
2021/06/10 11:42:16;;;;;;;22.17;21.05;;;39.70;35.40;;;;;;5073100;28;20290;-68
2021/06/10 11:44:47;;;;;;;22.30;21.38;;;40.90;31.50;;;;;;5072513;28;20225;-68
2021/06/10 11:47:21;;;;;;;21.85;20.85;;;38.90;31.50;;;;;;5072721;28;20298;-67
2021/06/10 11:49:48;;;;;;;22.20;21.15;;;40.80;30.60;;;;;;5072442;28;20211;-68
2021/06/10 11:52:15;;;;;;;22.42;21.52;;;41.70;29.60;;;;;;5072654;28;20220;-69
2021/06/10 11:54:59;;;;;;;21.50;20.70;;;44.60;27.60;;;;;;5072461;28;20193;-68
2021/06/10 11:57:27;;;;;;;23.10;22.10;;;46.60;25.30;;;;;;5072661;28;20204;-68
2021/06/10 11:59:54;;;;;;;22.45;21.65;;;48.40;24.00;;;;;;5072313;28;20212;-67
2021/06/10 12:02:23;;;;;;;22.77;21.77;;;47.40;22.40;;;;;;5072148;28;20236;-67
2021/06/10 12:05:06;;;;;;;23.90;22.65;;;44.20;23.70;;;;;;5072461;28;20654;-68
2021/06/10 12:07:34;;;;;;;22.30;21.40;;;41.20;25.90;;;;;;5072246;28;20208;-69
2021/06/10 12:10:08;;;;;;;23.63;22.63;;;39.70;27.50;;;;;;5071920;28;20200;-67
2021/06/10 12:12:38;;;;;;;22.25;21.20;;;38.20;28.80;;;;;;5072139;28;20652;-68
2021/06/10 12:15:06;;;;;;;22.55;21.60;;;41.60;28.20;;;;;;5072172;28;20193;-67
2021/06/10 12:17:50;;;;;;;21.70;20.90;;;41.00;26.80;;;;;;5071557;28;20203;-68
2021/06/10 12:20:17;;;;;;;22.30;21.40;;;38.50;28.80;;;;;;5070768;28;20204;-70
2021/06/10 12:22:47;;;;;;;22.08;21.08;;;37.10;29.50;;;;;;5071715;28;20215;-71
2021/06/10 12:25:21;;;;;;;23.85;22.75;;;36.30;31.00;;;;;;5071744;28;20235;-70
2021/06/10 12:27:47;;;;;;;22.20;21.13;;;40.00;29.20;;;;;;5071962;28;20209;-69
2021/06/10 12:30:30;;;;;;;21.85;20.98;;;43.40;26.90;;;;;;5071615;28;20261;-68
2021/06/10 12:33:17;;;;;;;21.65;20.75;;;47.70;24.30;;;;;;5071720;28;20568;-68
2021/06/10 12:35:45;;;;;;;21.88;21.08;;;48.70;21.60;;;;;;5071956;28;20598;-68